Time;durP1;ratioP1;P1;durP2;ratioP2;P2;SDS_P1;SDS_P2;PMS_P1;PMS_P2;Temp;Humidity;BMP_temperature;BMP_pressure;BME280_temperature;BME280_humidity;BME280_pressure;Samples;Min_cycle;Max_cycle;Signal;HPM_P1;HPM_P2
2021/05/05 00:00:07;;;;;;;;;;;18.50;60.00;;;;;;5043176;28;1088;-64
2021/05/05 00:02:32;;;;;;;;;;;18.50;60.10;;;;;;5016439;28;1262;-64
2021/05/05 00:04:57;;;;;;;;;;;18.50;60.10;;;;;;5044431;28;1959;-64
2021/05/05 00:07:23;;;;;;;;;;;18.50;60.00;;;;;;5040843;28;992;-64
2021/05/05 00:09:48;;;;;;;;;;;18.50;60.10;;;;;;5043951;28;1056;-64
2021/05/05 00:12:14;;;;;;;;;;;18.50;60.10;;;;;;5050628;28;1235;-64
2021/05/05 00:14:39;;;;;;;;;;;18.50;60.10;;;;;;5035906;28;1102;-64
2021/05/05 00:17:05;;;;;;;;;;;18.50;60.20;;;;;;5053504;28;1100;-64
2021/05/05 00:19:30;;;;;;;;;;;18.50;60.20;;;;;;5045208;28;1008;-64
2021/05/05 00:21:55;;;;;;;;;;;18.50;60.10;;;;;;5053732;28;1287;-64
2021/05/05 00:24:21;;;;;;;;;;;18.50;60.20;;;;;;5053738;28;1898;-64
2021/05/05 00:26:46;;;;;;;;;;;18.50;60.10;;;;;;5036825;28;1016;-64
2021/05/05 00:29:12;;;;;;;;;;;18.50;60.20;;;;;;5016591;28;1168;-65
2021/05/05 00:31:38;;;;;;;;;;;18.50;60.20;;;;;;5036152;28;1378;-65
2021/05/05 00:34:03;;;;;;;;;;;18.40;60.10;;;;;;5046189;28;1278;-65
2021/05/05 00:36:29;;;;;;;;;;;18.50;60.20;;;;;;5043515;28;1417;-65
2021/05/05 00:38:54;;;;;;;;;;;18.40;60.10;;;;;;5042206;28;1291;-65
2021/05/05 00:43:48;;;;;;;;;;;18.50;60.20;;;;;;5101410;28;2103;-69
2021/05/05 00:46:13;;;;;;;;;;;18.50;60.30;;;;;;5105699;28;1239;-70
2021/05/05 00:48:39;;;;;;;;;;;18.50;60.30;;;;;;5107852;28;1269;-70
2021/05/05 00:51:04;;;;;;;;;;;18.50;60.30;;;;;;5109231;28;1367;-68
2021/05/05 00:53:30;;;;;;;;;;;18.50;60.30;;;;;;5114906;28;1409;-68
2021/05/05 00:55:55;;;;;;;;;;;18.50;60.30;;;;;;5110969;28;1394;-68
2021/05/05 00:58:21;;;;;;;;;;;18.50;60.30;;;;;;5103905;28;1375;-68
2021/05/05 01:00:46;;;;;;;;;;;18.50;60.30;;;;;;5113546;28;1633;-68
2021/05/05 01:03:12;;;;;;;;;;;18.50;60.30;;;;;;5113377;28;1901;-68
2021/05/05 01:05:37;;;;;;;;;;;18.50;60.40;;;;;;5114017;28;1629;-68
2021/05/05 01:08:03;;;;;;;;;;;18.50;60.40;;;;;;5113172;28;1353;-68
2021/05/05 01:10:28;;;;;;;;;;;18.50;60.40;;;;;;5113682;28;1678;-68
2021/05/05 01:12:54;;;;;;;;;;;18.40;60.30;;;;;;5114779;28;1583;-68
2021/05/05 01:15:19;;;;;;;;;;;18.40;60.30;;;;;;5097246;28;1585;-68
2021/05/05 01:17:45;;;;;;;;;;;18.40;60.30;;;;;;5093866;28;1431;-68
2021/05/05 01:20:10;;;;;;;;;;;18.40;60.40;;;;;;5093554;28;1561;-68
2021/05/05 01:22:36;;;;;;;;;;;18.40;60.40;;;;;;5094128;28;1580;-68
2021/05/05 01:25:01;;;;;;;;;;;18.40;60.40;;;;;;5093523;28;1975;-68
2021/05/05 01:27:27;;;;;;;;;;;18.40;60.40;;;;;;5092752;28;1405;-70
2021/05/05 01:29:52;;;;;;;;;;;18.40;60.40;;;;;;5088965;28;1695;-70
2021/05/05 01:32:18;;;;;;;;;;;18.40;60.40;;;;;;5114030;28;1559;-70
2021/05/05 01:34:43;;;;;;;;;;;18.40;60.40;;;;;;5112635;28;1765;-70
2021/05/05 01:37:09;;;;;;;;;;;18.40;60.50;;;;;;5113843;28;1622;-69
2021/05/05 01:39:34;;;;;;;;;;;18.40;60.40;;;;;;5112571;28;1756;-69
2021/05/05 01:42:00;;;;;;;;;;;18.40;60.40;;;;;;5112750;28;1368;-69
2021/05/05 01:44:29;;;;;;;;;;;18.40;60.50;;;;;;5113587;28;1976;-69
2021/05/05 01:46:54;;;;;;;;;;;18.40;60.50;;;;;;5113446;28;1646;-70
2021/05/05 01:49:24;;;;;;;;;;;18.40;60.50;;;;;;5113415;28;1643;-69
2021/05/05 01:51:49;;;;;;;;;;;18.40;60.50;;;;;;5112341;28;1683;-69
2021/05/05 01:54:15;;;;;;;;;;;18.40;60.50;;;;;;5113951;28;1847;-69
2021/05/05 01:56:41;;;;;;;;;;;18.40;60.50;;;;;;5113642;28;1205;-69
2021/05/05 01:59:06;;;;;;;;;;;18.40;60.50;;;;;;5113978;28;1622;-69
2021/05/05 02:01:31;;;;;;;;;;;18.40;60.50;;;;;;5113647;28;1550;-68
2021/05/05 02:04:01;;;;;;;;;;;18.40;61.30;;;;;;5111572;28;1898;-68
2021/05/05 02:06:27;;;;;;;;;;;18.40;60.50;;;;;;5112924;28;1672;-69
2021/05/05 02:08:52;;;;;;;;;;;18.40;60.60;;;;;;5113627;28;1389;-69
2021/05/05 02:11:18;;;;;;;;;;;18.40;60.60;;;;;;5112794;28;1398;-69
2021/05/05 02:13:43;;;;;;;;;;;18.40;60.60;;;;;;5109505;28;1404;-69
2021/05/05 02:16:08;;;;;;;;;;;18.40;60.60;;;;;;5092167;28;1121;-69
2021/05/05 02:18:34;;;;;;;;;;;18.40;60.60;;;;;;5092975;28;1701;-69
2021/05/05 02:20:59;;;;;;;;;;;18.40;60.60;;;;;;5092549;28;1388;-69
2021/05/05 02:23:25;;;;;;;;;;;18.40;60.60;;;;;;5092687;28;1985;-69
2021/05/05 02:25:50;;;;;;;;;;;18.40;60.60;;;;;;5091743;28;1661;-69
2021/05/05 02:28:16;;;;;;;;;;;18.40;60.70;;;;;;5092720;28;1676;-69
2021/05/05 02:30:41;;;;;;;;;;;18.30;60.60;;;;;;5092947;28;1442;-69
2021/05/05 02:33:06;;;;;;;;;;;18.30;60.60;;;;;;5092775;28;1596;-69
2021/05/05 02:35:32;;;;;;;;;;;18.30;60.60;;;;;;5091572;28;1351;-69
2021/05/05 02:37:57;;;;;;;;;;;18.30;60.60;;;;;;5092822;28;1629;-69
2021/05/05 02:40:23;;;;;;;;;;;18.30;60.60;;;;;;5092504;28;1541;-69
2021/05/05 02:42:48;;;;;;;;;;;18.30;60.60;;;;;;5092620;28;1597;-69
2021/05/05 02:45:14;;;;;;;;;;;18.30;60.70;;;;;;5091927;28;1959;-69
2021/05/05 02:47:39;;;;;;;;;;;18.30;60.70;;;;;;5092790;28;1683;-70
2021/05/05 02:50:05;;;;;;;;;;;18.30;60.60;;;;;;5092750;28;1645;-69
2021/05/05 02:52:30;;;;;;;;;;;18.30;60.70;;;;;;5091405;28;1584;-70
2021/05/05 02:54:56;;;;;;;;;;;18.30;60.70;;;;;;5092364;28;1413;-70
2021/05/05 02:57:21;;;;;;;;;;;18.30;60.70;;;;;;5092762;28;1385;-70
2021/05/05 02:59:46;;;;;;;;;;;18.30;60.70;;;;;;5112988;28;1390;-70
2021/05/05 03:02:12;;;;;;;;;;;18.30;60.70;;;;;;5112760;28;1470;-70
2021/05/05 03:04:37;;;;;;;;;;;18.30;60.70;;;;;;5112376;28;1894;-70
2021/05/05 03:07:03;;;;;;;;;;;18.30;60.70;;;;;;5111144;28;1368;-70
2021/05/05 03:09:29;;;;;;;;;;;18.30;60.70;;;;;;5112916;28;1591;-71
2021/05/05 03:11:55;;;;;;;;;;;18.30;60.70;;;;;;5112908;28;1386;-70
2021/05/05 03:14:21;;;;;;;;;;;18.30;60.80;;;;;;5104472;28;1434;-70
2021/05/05 03:16:47;;;;;;;;;;;18.30;60.80;;;;;;5091468;28;1277;-71
2021/05/05 03:19:12;;;;;;;;;;;18.30;60.80;;;;;;5099751;28;837;-69
2021/05/05 03:21:38;;;;;;;;;;;18.30;60.80;;;;;;5093357;28;1487;-69
2021/05/05 03:24:04;;;;;;;;;;;18.30;60.80;;;;;;5092698;28;1897;-69
2021/05/05 03:26:30;;;;;;;;;;;18.30;60.80;;;;;;5091249;28;1710;-69
2021/05/05 03:28:55;;;;;;;;;;;18.30;60.80;;;;;;5091969;28;1661;-69
2021/05/05 03:31:20;;;;;;;;;;;18.30;60.80;;;;;;5092102;28;1347;-69
2021/05/05 03:33:46;;;;;;;;;;;18.30;60.90;;;;;;5095448;28;1656;-69
2021/05/05 03:36:11;;;;;;;;;;;18.30;60.80;;;;;;5096016;28;1560;-69
2021/05/05 03:38:37;;;;;;;;;;;18.30;60.80;;;;;;5102719;28;899;-69
2021/05/05 03:41:02;;;;;;;;;;;18.30;60.80;;;;;;5116230;28;1363;-69
2021/05/05 03:43:28;;;;;;;;;;;18.30;60.80;;;;;;5116064;28;1959;-69
2021/05/05 03:45:53;;;;;;;;;;;18.30;60.70;;;;;;5115415;28;1667;-69
2021/05/05 03:48:22;;;;;;;;;;;18.30;60.70;;;;;;5116283;28;1444;-69
2021/05/05 03:50:48;;;;;;;;;;;18.30;60.70;;;;;;5116092;28;1220;-69
2021/05/05 03:53:13;;;;;;;;;;;18.30;60.60;;;;;;5114459;28;1428;-70
2021/05/05 03:55:38;;;;;;;;;;;18.30;60.60;;;;;;5115235;28;1672;-70
2021/05/05 03:58:04;;;;;;;;;;;18.40;60.60;;;;;;5114669;28;1709;-70
2021/05/05 04:00:29;;;;;;;;;;;18.40;60.50;;;;;;5116092;28;1174;-70
2021/05/05 04:02:55;;;;;;;;;;;18.40;60.50;;;;;;5114426;28;1905;-70
2021/05/05 04:05:20;;;;;;;;;;;18.40;60.50;;;;;;5114945;28;1654;-69
2021/05/05 04:07:45;;;;;;;;;;;18.40;60.40;;;;;;5114561;28;1701;-70
2021/05/05 04:10:11;;;;;;;;;;;18.40;60.30;;;;;;5115566;28;1692;-69
2021/05/05 04:12:37;;;;;;;;;;;18.40;60.30;;;;;;5115624;28;1388;-69
2021/05/05 04:15:03;;;;;;;;;;;18.40;60.30;;;;;;5101654;28;1453;-69
2021/05/05 04:17:28;;;;;;;;;;;18.50;60.30;;;;;;5095117;28;984;-69
2021/05/05 04:19:54;;;;;;;;;;;18.50;60.30;;;;;;5071860;28;1189;-69
2021/05/05 04:22:20;;;;;;;;;;;18.50;60.30;;;;;;5093601;28;1799;-69
2021/05/05 04:24:45;;;;;;;;;;;18.40;60.20;;;;;;5094249;28;1960;-69
2021/05/05 04:27:11;;;;;;;;;;;18.50;60.30;;;;;;5113993;28;1661;-69
2021/05/05 04:29:37;;;;;;;;;;;18.50;60.20;;;;;;5108868;28;1398;-69
2021/05/05 04:32:02;;;;;;;;;;;18.40;60.20;;;;;;5114984;28;1537;-70
2021/05/05 04:34:28;;;;;;;;;;;18.50;60.20;;;;;;5115357;28;1611;-70
2021/05/05 04:36:54;;;;;;;;;;;18.50;60.20;;;;;;5113380;28;1742;-70
2021/05/05 04:39:19;;;;;;;;;;;18.50;60.10;;;;;;5102186;28;786;-70
2021/05/05 04:41:45;;;;;;;;;;;18.50;60.10;;;;;;5093250;28;1662;-70
2021/05/05 04:44:10;;;;;;;;;;;18.50;60.10;;;;;;5107647;28;1914;-69
2021/05/05 04:46:35;;;;;;;;;;;18.50;60.10;;;;;;5114670;28;1427;-69
2021/05/05 04:49:01;;;;;;;;;;;18.50;60.10;;;;;;5114098;28;1558;-69
2021/05/05 04:51:26;;;;;;;;;;;18.50;60.10;;;;;;5088240;28;1346;-70
2021/05/05 04:53:52;;;;;;;;;;;18.50;60.10;;;;;;5102527;28;1148;-70
2021/05/05 04:56:17;;;;;;;;;;;18.50;60.10;;;;;;5092480;28;1735;-69
2021/05/05 04:58:42;;;;;;;;;;;18.50;60.10;;;;;;5094333;28;1700;-69
2021/05/05 05:01:08;;;;;;;;;;;18.50;60.10;;;;;;5094347;28;1510;-68
2021/05/05 05:03:33;;;;;;;;;;;18.50;60.10;;;;;;5094334;28;1949;-68
2021/05/05 05:05:59;;;;;;;;;;;18.60;60.10;;;;;;5093561;28;1405;-69
2021/05/05 05:08:24;;;;;;;;;;;18.50;60.00;;;;;;5093918;28;1490;-69
2021/05/05 05:10:50;;;;;;;;;;;18.50;60.00;;;;;;5093736;28;1646;-69
2021/05/05 05:13:16;;;;;;;;;;;18.50;60.00;;;;;;5093449;28;1692;-68
2021/05/05 05:15:41;;;;;;;;;;;18.50;60.00;;;;;;5093163;28;1263;-69
2021/05/05 05:18:07;;;;;;;;;;;18.60;60.10;;;;;;5093633;28;1131;-69
2021/05/05 05:20:32;;;;;;;;;;;18.60;60.00;;;;;;5102544;28;1721;-69
2021/05/05 05:22:57;;;;;;;;;;;18.50;60.00;;;;;;5092767;28;1909;-69
2021/05/05 05:25:24;;;;;;;;;;;18.50;60.00;;;;;;5093089;28;1408;-68
2021/05/05 05:27:50;;;;;;;;;;;18.50;60.00;;;;;;5076259;28;1645;-68
2021/05/05 05:30:15;;;;;;;;;;;18.50;60.00;;;;;;5090593;28;1735;-69
2021/05/05 05:32:41;;;;;;;;;;;18.50;60.00;;;;;;5113805;28;1645;-71
2021/05/05 05:35:07;;;;;;;;;;;18.50;60.00;;;;;;5095379;28;1348;-71
2021/05/05 05:37:32;;;;;;;;;;;18.60;60.00;;;;;;5092712;28;1359;-71
2021/05/05 05:39:57;;;;;;;;;;;18.50;59.90;;;;;;5092124;28;1631;-71
2021/05/05 05:42:23;;;;;;;;;;;18.60;60.00;;;;;;5093616;28;1655;-71
2021/05/05 05:44:48;;;;;;;;;;;18.60;60.70;;;;;;5093316;28;1905;-71
2021/05/05 05:47:14;;;;;;;;;;;18.60;60.00;;;;;;5091469;28;1648;-71
2021/05/05 05:49:39;;;;;;;;;;;18.60;60.00;;;;;;5093217;28;1648;-69
2021/05/05 05:52:05;;;;;;;;;;;18.60;60.00;;;;;;5092314;28;1393;-69
2021/05/05 05:54:30;;;;;;;;;;;18.60;60.00;;;;;;5092909;28;1401;-69
2021/05/05 05:56:56;;;;;;;;;;;18.60;59.90;;;;;;5092523;28;1084;-70
2021/05/05 05:59:21;;;;;;;;;;;18.60;60.00;;;;;;5091697;28;1617;-70
2021/05/05 06:01:47;;;;;;;;;;;18.60;59.90;;;;;;5093543;28;1385;-70
2021/05/05 06:04:12;;;;;;;;;;;18.60;59.90;;;;;;5092126;28;1894;-70
2021/05/05 06:06:37;;;;;;;;;;;18.60;59.90;;;;;;5092826;28;1358;-69
2021/05/05 06:09:03;;;;;;;;;;;18.60;59.90;;;;;;5092557;28;1680;-72
2021/05/05 06:11:29;;;;;;;;;;;18.60;59.90;;;;;;5073892;28;2233;-68
2021/05/05 06:13:54;;;;;;;;;;;18.60;59.90;;;;;;5094419;28;1466;-68
2021/05/05 06:16:19;;;;;;;;;;;18.60;59.90;;;;;;5090074;28;1547;-68
2021/05/05 06:18:45;;;;;;;;;;;18.60;59.90;;;;;;5105046;28;1577;-67
2021/05/05 06:21:11;;;;;;;;;;;18.60;59.90;;;;;;5090149;28;1419;-67
2021/05/05 06:23:36;;;;;;;;;;;18.60;59.90;;;;;;5077999;28;1963;-67
2021/05/05 06:26:02;;;;;;;;;;;18.60;59.90;;;;;;5088862;28;1412;-67
2021/05/05 06:28:27;;;;;;;;;;;18.60;59.90;;;;;;5109601;28;1670;-67
2021/05/05 06:30:54;;;;;;;;;;;18.60;59.90;;;;;;5093942;28;1436;-67
2021/05/05 06:33:20;;;;;;;;;;;18.60;59.90;;;;;;5102646;28;1274;-67
2021/05/05 06:35:45;;;;;;;;;;;18.60;59.90;;;;;;5111717;28;1513;-67
2021/05/05 06:38:10;;;;;;;;;;;18.60;59.90;;;;;;5110361;28;1725;-68
2021/05/05 06:40:36;;;;;;;;;;;18.60;59.90;;;;;;5112130;28;1673;-68
2021/05/05 06:43:01;;;;;;;;;;;18.60;59.90;;;;;;5111785;28;1901;-70
2021/05/05 06:45:27;;;;;;;;;;;18.60;59.90;;;;;;5111145;28;1372;-69
2021/05/05 06:47:52;;;;;;;;;;;18.60;59.80;;;;;;5111946;28;1372;-70
2021/05/05 06:50:18;;;;;;;;;;;18.60;59.80;;;;;;5112097;28;1454;-69
2021/05/05 06:52:43;;;;;;;;;;;18.60;59.80;;;;;;5110708;28;1706;-68
2021/05/05 06:55:09;;;;;;;;;;;18.60;59.80;;;;;;5111602;28;1105;-69
2021/05/05 06:57:35;;;;;;;;;;;18.60;59.80;;;;;;5110694;28;1102;-70
2021/05/05 07:00:02;;;;;;;;;;;18.60;59.80;;;;;;5102683;28;834;-70
2021/05/05 07:02:27;;;;;;;;;;;18.60;59.80;;;;;;5092457;28;1284;-70
2021/05/05 07:04:53;;;;;;;;;;;18.60;59.80;;;;;;5102113;28;1901;-70
2021/05/05 07:07:18;;;;;;;;;;;18.60;59.80;;;;;;5114266;28;1065;-70
2021/05/05 07:09:44;;;;;;;;;;;18.60;59.80;;;;;;5116743;28;1156;-70
2021/05/05 07:12:09;;;;;;;;;;;18.70;59.90;;;;;;5097481;28;1606;-70
2021/05/05 07:14:35;;;;;;;;;;;18.70;59.90;;;;;;5106400;28;983;-70
2021/05/05 07:17:00;;;;;;;;;;;18.60;59.80;;;;;;5093450;28;1067;-70
2021/05/05 07:19:25;;;;;;;;;;;18.70;59.80;;;;;;5096365;28;1075;-70
2021/05/05 07:21:51;;;;;;;;;;;18.60;59.80;;;;;;5095236;28;1381;-70
2021/05/05 07:24:16;;;;;;;;;;;18.60;59.80;;;;;;5095959;28;1956;-70
2021/05/05 07:26:42;;;;;;;;;;;18.60;59.80;;;;;;5093740;28;1475;-70
2021/05/05 07:29:07;;;;;;;;;;;18.60;59.80;;;;;;5095944;28;1279;-71
2021/05/05 07:31:33;;;;;;;;;;;18.70;59.90;;;;;;5095352;28;1372;-70
2021/05/05 07:34:00;;;;;;;;;;;18.70;59.90;;;;;;5094856;28;1154;-69
2021/05/05 07:36:27;;;;;;;;;;;18.70;59.80;;;;;;5094375;28;1146;-68
2021/05/05 07:46:48;;;;;;;;;;;18.70;59.80;;;;;;5095018;28;1157;-69
2021/05/05 07:49:16;;;;;;;;;;;18.70;59.90;;;;;;5095890;28;1075;-69
2021/05/05 07:51:42;;;;;;;;;;;18.70;59.80;;;;;;5094994;28;1285;-69
2021/05/05 07:54:08;;;;;;;;;;;18.70;59.90;;;;;;5095431;28;1118;-69
2021/05/05 07:56:33;;;;;;;;;;;18.70;59.80;;;;;;5093544;28;1220;-68
2021/05/05 07:59:01;;;;;;;;;;;18.70;59.80;;;;;;5095136;28;1129;-69
2021/05/05 08:01:27;;;;;;;;;;;18.70;59.80;;;;;;5094936;28;1357;-69
2021/05/05 08:03:52;;;;;;;;;;;18.70;59.80;;;;;;5095334;28;1951;-69
2021/05/05 08:06:18;;;;;;;;;;;18.70;59.80;;;;;;5094490;28;1043;-70
2021/05/05 08:08:43;;;;;;;;;;;18.70;59.80;;;;;;5093946;28;1075;-69
2021/05/05 08:11:09;;;;;;;;;;;18.70;59.80;;;;;;5102944;28;849;-70
2021/05/05 08:13:34;;;;;;;;;;;18.70;59.80;;;;;;5113912;28;1193;-69
2021/05/05 08:16:00;;;;;;;;;;;18.70;59.80;;;;;;5094081;28;1079;-69
2021/05/05 08:18:25;;;;;;;;;;;18.70;59.80;;;;;;5094278;28;1638;-69
2021/05/05 08:20:51;;;;;;;;;;;18.70;59.80;;;;;;5096788;28;1102;-70
2021/05/05 08:23:17;;;;;;;;;;;18.70;59.80;;;;;;5113614;28;1910;-70
2021/05/05 08:25:43;;;;;;;;;;;18.70;59.90;;;;;;5114492;28;1117;-69
2021/05/05 08:28:08;;;;;;;;;;;18.70;59.80;;;;;;5093099;28;2343;-69
2021/05/05 08:30:34;;;;;;;;;;;18.70;59.80;;;;;;5093766;28;1604;-69
2021/05/05 08:32:59;;;;;;;;;;;18.70;59.80;;;;;;5098172;28;1511;-69
2021/05/05 08:35:25;;;;;;;;;;;18.70;59.80;;;;;;5094111;28;1527;-69
2021/05/05 08:37:51;;;;;;;;;;;18.70;59.80;;;;;;5094705;28;1651;-69
2021/05/05 08:40:17;;;;;;;;;;;18.70;59.80;;;;;;5093526;28;1511;-70
2021/05/05 08:42:42;;;;;;;;;;;18.70;59.90;;;;;;5094432;28;1662;-70
2021/05/05 08:45:26;;;;;;;;;;;18.70;59.80;;;;;;5092607;28;2582;-70
2021/05/05 08:47:52;;;;;;;;;;;18.70;59.80;;;;;;5092444;28;1391;-69
2021/05/05 08:50:18;;;;;;;;;;;18.70;59.80;;;;;;5092524;28;1074;-69
2021/05/05 08:52:43;;;;;;;;;;;18.70;59.80;;;;;;5102210;28;2189;-73
2021/05/05 08:55:10;;;;;;;;;;;18.70;59.80;;;;;;5093861;28;1094;-70
2021/05/05 08:57:35;;;;;;;;;;;18.70;59.90;;;;;;5092427;28;1161;-73
2021/05/05 09:00:01;;;;;;;;;;;18.70;59.80;;;;;;5093308;28;1452;-71
2021/05/05 09:02:27;;;;;;;;;;;18.70;59.90;;;;;;5092682;28;1286;-71
2021/05/05 09:04:59;;;;;;;;;;;18.70;59.80;;;;;;5076017;28;1898;-71
2021/05/05 09:07:31;;;;;;;;;;;18.70;59.90;;;;;;5093259;28;1149;-69
2021/05/05 09:10:04;;;;;;;;;;;18.70;59.80;;;;;;5075918;28;1293;-69
2021/05/05 09:12:30;;;;;;;;;;;18.70;59.80;;;;;;5093290;28;1345;-70
2021/05/05 09:15:00;;;;;;;;;;;18.70;59.80;;;;;;5092864;28;1388;-70
2021/05/05 09:17:29;;;;;;;;;;;18.70;59.80;;;;;;5091808;28;1313;-70
2021/05/05 09:20:07;;;;;;;;;;;18.70;59.90;;;;;;5087761;28;1083;-68
2021/05/05 09:22:33;;;;;;;;;;;18.70;59.80;;;;;;5086665;28;1969;-68
2021/05/05 09:24:58;;;;;;;;;;;18.70;59.80;;;;;;5074126;28;1898;-68
2021/05/05 09:27:24;;;;;;;;;;;18.70;59.80;;;;;;5091746;28;1221;-68
2021/05/05 09:29:49;;;;;;;;;;;18.70;59.80;;;;;;5090117;28;1661;-68
2021/05/05 09:32:21;;;;;;;;;;;18.70;59.80;;;;;;5100967;28;1572;-68
2021/05/05 09:34:57;;;;;;;;;;;18.70;59.80;;;;;;5111570;28;1660;-71
2021/05/05 09:37:22;;;;;;;;;;;18.70;59.80;;;;;;5110865;28;1662;-69
2021/05/05 09:39:48;;;;;;;;;;;18.70;59.80;;;;;;5095948;28;1609;-70
2021/05/05 09:42:16;;;;;;;;;;;18.70;59.80;;;;;;5111515;28;1655;-69
2021/05/05 09:44:54;;;;;;;;;;;18.70;59.80;;;;;;5112983;28;1963;-69
2021/05/05 09:47:20;;;;;;;;;;;18.70;59.80;;;;;;5093199;28;2263;-69
2021/05/05 09:49:46;;;;;;;;;;;18.70;59.80;;;;;;5089032;28;1856;-69
2021/05/05 09:52:15;;;;;;;;;;;18.70;60.50;;;;;;5089018;28;1274;-70
2021/05/05 09:54:51;;;;;;;;;;;18.70;59.80;;;;;;5079212;28;1159;-70
2021/05/05 09:57:24;;;;;;;;;;;18.70;59.80;;;;;;5075094;28;1913;-69
2021/05/05 10:00:08;;;;;;;;;;;18.70;59.80;;;;;;5081479;28;1936;-69
2021/05/05 10:02:46;;;;;;;;;;;18.70;59.80;;;;;;5088752;28;1895;-69
2021/05/05 10:05:13;;;;;;;;;;;18.70;59.80;;;;;;5089064;28;1973;-70
2021/05/05 10:07:55;;;;;;;;;;;18.70;59.90;;;;;;5095874;28;1098;-69
2021/05/05 10:10:24;;;;;;;;;;;18.70;59.80;;;;;;5099475;28;1082;-69
2021/05/05 10:12:49;;;;;;;;;;;18.70;59.80;;;;;;5109130;28;1207;-70
2021/05/05 10:15:16;;;;;;;;;;;18.70;59.90;;;;;;5087899;28;1854;-70
2021/05/05 10:17:41;;;;;;;;;;;18.70;59.80;;;;;;5079550;28;1851;-70
2021/05/05 10:20:07;;;;;;;;;;;18.70;59.90;;;;;;5089578;28;1447;-69
2021/05/05 10:22:32;;;;;;;;;;;18.70;59.80;;;;;;5089745;28;1310;-69
2021/05/05 10:24:58;;;;;;;;;;;18.70;59.80;;;;;;5089657;28;1897;-70
2021/05/05 10:27:24;;;;;;;;;;;18.70;59.80;;;;;;5088569;28;1741;-69
2021/05/05 10:29:50;;;;;;;;;;;18.70;59.80;;;;;;5067341;28;1687;-69
2021/05/05 10:32:17;;;;;;;;;;;18.70;59.80;;;;;;5109889;28;1646;-69
2021/05/05 10:34:44;;;;;;;;;;;18.70;59.80;;;;;;5097584;28;1979;-69
2021/05/05 10:37:09;;;;;;;;;;;18.70;59.80;;;;;;5089696;28;964;-69
2021/05/05 10:39:36;;;;;;;;;;;18.70;59.80;;;;;;5104792;28;1241;-69
2021/05/05 10:42:02;;;;;;;;;;;18.70;59.80;;;;;;5109790;28;1280;-69
2021/05/05 10:44:43;;;;;;;;;;;18.70;59.80;;;;;;5098136;28;1901;-69
2021/05/05 10:47:09;;;;;;;;;;;18.70;59.80;;;;;;5092751;28;1236;-69
2021/05/05 10:49:34;;;;;;;;;;;18.80;59.80;;;;;;5089192;28;1189;-69
2021/05/05 10:52:00;;;;;;;;;;;18.70;59.80;;;;;;5093736;28;1377;-69
2021/05/05 10:54:45;;;;;;;;;;;18.80;59.80;;;;;;5089870;28;1297;-69
2021/05/05 10:57:11;;;;;;;;;;;18.70;59.80;;;;;;5089215;28;1167;-69
2021/05/05 10:59:55;;;;;;;;;;;18.80;59.80;;;;;;5089280;28;1141;-69
2021/05/05 11:02:40;;;;;;;;;;;18.80;59.80;;;;;;5090358;28;1383;-69
2021/05/05 11:05:06;;;;;;;;;;;18.80;59.80;;;;;;5090914;28;1894;-69
2021/05/05 11:07:50;;;;;;;;;;;18.80;59.80;;;;;;5088304;28;1142;-69
2021/05/05 11:10:35;;;;;;;;;;;18.80;59.80;;;;;;5089162;28;1158;-69
2021/05/05 11:13:04;;;;;;;;;;;18.80;59.80;;;;;;5087130;28;1320;-69
2021/05/05 11:15:45;;;;;;;;;;;18.80;59.80;;;;;;5085591;28;1366;-69
2021/05/05 11:18:29;;;;;;;;;;;18.80;59.80;;;;;;5084143;28;1241;-69
2021/05/05 11:21:02;;;;;;;;;;;18.80;59.80;;;;;;5091383;28;1376;-69
2021/05/05 11:23:38;;;;;;;;;;;18.80;59.80;;;;;;5072170;28;1979;-69
2021/05/05 11:26:16;;;;;;;;;;;18.80;59.80;;;;;;5083747;28;2246;-70
2021/05/05 11:28:57;;;;;;;;;;;18.80;59.70;;;;;;5072266;28;1332;-70
2021/05/05 11:31:41;;;;;;;;;;;18.80;59.80;;;;;;5083998;28;1388;-70
2021/05/05 11:34:07;;;;;;;;;;;18.80;59.80;;;;;;5105920;28;1239;-70
2021/05/05 11:36:32;;;;;;;;;;;18.80;59.80;;;;;;5090513;28;959;-70
2021/05/05 11:38:58;;;;;;;;;;;18.80;59.70;;;;;;5090249;28;982;-70
2021/05/05 11:41:25;;;;;;;;;;;18.80;59.70;;;;;;5092160;28;1460;-70
2021/05/05 11:43:51;;;;;;;;;;;18.80;59.70;;;;;;5074505;28;1961;-70
2021/05/05 11:46:16;;;;;;;;;;;18.80;59.70;;;;;;5090544;28;1067;-70
2021/05/05 11:48:42;;;;;;;;;;;18.80;59.70;;;;;;5088836;28;1272;-70
2021/05/05 11:51:15;;;;;;;;;;;18.80;59.70;;;;;;5094096;28;1075;-70
2021/05/05 11:53:40;;;;;;;;;;;18.80;59.70;;;;;;5081970;28;1188;-70
2021/05/05 11:56:15;;;;;;;;;;;18.80;59.70;;;;;;5092848;28;1067;-70
2021/05/05 11:58:41;;;;;;;;;;;18.80;59.70;;;;;;5093804;28;1122;-70
2021/05/05 12:01:06;;;;;;;;;;;18.80;59.70;;;;;;5111734;28;1079;-70
2021/05/05 12:03:32;;;;;;;;;;;18.80;59.70;;;;;;5114425;28;1906;-70
2021/05/05 12:05:57;;;;;;;;;;;18.80;59.70;;;;;;5113795;28;1050;-70
2021/05/05 12:08:27;;;;;;;;;;;18.80;59.70;;;;;;5112813;28;1243;-70
2021/05/05 12:10:53;;;;;;;;;;;18.80;59.70;;;;;;5113202;28;1122;-70
2021/05/05 12:13:31;;;;;;;;;;;18.80;59.70;;;;;;5114966;28;1230;-70
2021/05/05 12:16:03;;;;;;;;;;;18.80;59.70;;;;;;5079121;28;1008;-70
2021/05/05 12:18:32;;;;;;;;;;;18.80;59.70;;;;;;5093833;28;1118;-69
2021/05/05 12:21:03;;;;;;;;;;;18.80;59.70;;;;;;5093870;28;1106;-69
2021/05/05 12:23:35;;;;;;;;;;;18.80;59.80;;;;;;5094004;28;1874;-69
2021/05/05 12:26:10;;;;;;;;;;;18.80;59.70;;;;;;5092391;28;1118;-69
2021/05/05 12:28:36;;;;;;;;;;;18.80;59.70;;;;;;5092767;28;1087;-69
2021/05/05 12:31:01;;;;;;;;;;;18.80;59.70;;;;;;5093939;28;1141;-69
2021/05/05 12:33:30;;;;;;;;;;;18.80;59.70;;;;;;5092164;28;1373;-69
2021/05/05 12:35:55;;;;;;;;;;;18.80;59.70;;;;;;5074854;28;1697;-68
2021/05/05 12:38:21;;;;;;;;;;;18.80;59.70;;;;;;5095392;28;1047;-68
2021/05/05 12:40:46;;;;;;;;;;;18.80;59.70;;;;;;5075341;28;1355;-68
2021/05/05 12:43:13;;;;;;;;;;;18.80;59.70;;;;;;5093538;28;1272;-68
2021/05/05 12:45:38;;;;;;;;;;;18.80;59.70;;;;;;5087956;28;1933;-66
2021/05/05 12:48:04;;;;;;;;;;;18.80;59.70;;;;;;5081635;28;1704;-66
2021/05/05 12:50:40;;;;;;;;;;;18.80;59.70;;;;;;5091478;28;1086;-67
2021/05/05 12:53:05;;;;;;;;;;;18.80;59.70;;;;;;5076224;28;1773;-67
2021/05/05 12:55:33;;;;;;;;;;;18.80;59.70;;;;;;5088057;28;1114;-67
2021/05/05 12:58:11;;;;;;;;;;;18.80;59.70;;;;;;5082730;28;1823;-67
2021/05/05 13:00:41;;;;;;;;;;;18.80;59.70;;;;;;5083689;22;2400;-64
2021/05/05 13:03:13;;;;;;;;;;;18.80;59.70;;;;;;5069445;28;1228;-64
2021/05/05 13:05:54;;;;;;;;;;;18.80;59.70;;;;;;5069478;28;1922;-64
2021/05/05 13:08:27;;;;;;;;;;;18.80;59.70;;;;;;5073369;28;1388;-65
2021/05/05 13:10:52;;;;;;;;;;;18.80;59.70;;;;;;5071397;28;1680;-64
2021/05/05 13:13:20;;;;;;;;;;;18.80;59.70;;;;;;5072172;28;1344;-64
2021/05/05 13:16:17;;;;;;;;;;;18.80;59.70;;;;;;5049712;28;1324;-64
2021/05/05 13:29:59;;;;;;;;;;;18.80;59.70;;;;;;5050692;28;1892;-64
2021/05/05 13:32:35;;;;;;;;;;;18.80;59.70;;;;;;5061651;28;1386;-64
2021/05/05 13:35:19;;;;;;;;;;;18.80;59.70;;;;;;5052709;28;1534;-64
2021/05/05 13:37:54;;;;;;;;;;;18.80;59.70;;;;;;5039290;28;2150;-64
2021/05/05 13:40:20;;;;;;;;;;;18.80;59.70;;;;;;5038800;28;2016;-64
2021/05/05 13:42:45;;;;;;;;;;;18.80;59.80;;;;;;5045155;28;1357;-64
2021/05/05 13:45:11;;;;;;;;;;;18.80;59.70;;;;;;5050724;28;1894;-66
2021/05/05 13:47:46;;;;;;;;;;;18.80;59.70;;;;;;5051452;28;1368;-64
2021/05/05 13:50:11;;;;;;;;;;;18.80;59.70;;;;;;5052667;28;1637;-64
2021/05/05 13:52:37;;;;;;;;;;;18.80;59.80;;;;;;5043614;28;1375;-64
2021/05/05 13:55:02;;;;;;;;;;;18.80;59.70;;;;;;5071053;28;1660;-64
2021/05/05 13:57:28;;;;;;;;;;;18.80;59.70;;;;;;5070529;28;1416;-64
2021/05/05 13:59:54;;;;;;;;;;;18.80;59.70;;;;;;5070771;28;1725;-63
2021/05/05 14:02:20;;;;;;;;;;;18.80;59.70;;;;;;5071350;28;1460;-64
2021/05/05 14:04:45;;;;;;;;;;;18.80;59.80;;;;;;5070674;28;1901;-64
2021/05/05 14:07:12;;;;;;;;;;;18.80;59.70;;;;;;5070682;28;1410;-63
2021/05/05 14:09:37;;;;;;;;;;;18.80;60.40;;;;;;5071161;28;1391;-63
2021/05/05 14:12:03;;;;;;;;;;;18.90;60.10;;;;;;5070647;28;1576;-63
2021/05/05 14:14:30;;;;;;;;;;;18.90;60.00;;;;;;5061829;28;1772;-65
2021/05/05 14:16:58;;;;;;;;;;;18.90;59.90;;;;;;5050034;28;1570;-64
2021/05/05 14:19:23;;;;;;;;;;;18.90;59.80;;;;;;5050555;28;1229;-63
2021/05/05 14:21:49;;;;;;;;;;;18.90;59.80;;;;;;5062598;28;1658;-63
2021/05/05 14:24:17;;;;;;;;;;;18.90;59.80;;;;;;5070529;28;1951;-63
2021/05/05 14:26:43;;;;;;;;;;;18.90;59.80;;;;;;5069475;28;1577;-63
2021/05/05 14:29:08;;;;;;;;;;;18.90;59.80;;;;;;5068642;28;1613;-64
2021/05/05 14:31:34;;;;;;;;;;;18.90;59.80;;;;;;5049340;28;1600;-63
2021/05/05 14:33:59;;;;;;;;;;;18.90;59.80;;;;;;5050435;28;1613;-64
2021/05/05 14:36:25;;;;;;;;;;;18.90;59.80;;;;;;5052865;28;1322;-64
2021/05/05 14:38:51;;;;;;;;;;;18.90;59.80;;;;;;5070749;28;1845;-64
2021/05/05 14:41:23;;;;;;;;;;;18.90;59.80;;;;;;5069951;28;1578;-63
2021/05/05 14:43:59;;;;;;;;;;;18.90;59.80;;;;;;5070861;28;1918;-65
2021/05/05 14:48:50;;;;;;;;;;;18.90;59.90;;;;;;5050406;28;1492;-64
2021/05/05 14:51:16;;;;;;;;;;;18.90;59.80;;;;;;5049291;28;2906;-65
2021/05/05 14:53:41;;;;;;;;;;;18.80;59.80;;;;;;5061338;28;1398;-65